createdAt,value
2018-07-02T00:05:55.647Z,14.69
2018-07-02T00:12:01.485Z,14.60
2018-07-02T00:18:07.161Z,14.41
2018-07-02T00:24:13.000Z,14.26
2018-07-02T00:30:18.636Z,14.30
2018-07-02T00:36:25.715Z,14.04
2018-07-02T00:42:31.433Z,13.96
2018-07-02T00:48:37.191Z,13.77
2018-07-02T00:54:43.252Z,13.26
2018-07-02T01:00:48.925Z,13.18
2018-07-02T01:06:55.198Z,13.07
2018-07-02T01:13:00.912Z,12.97
2018-07-02T01:19:06.657Z,12.88
2018-07-02T01:25:12.314Z,12.90
2018-07-02T01:31:17.960Z,12.72
2018-07-02T01:37:24.752Z,12.81
2018-07-02T01:43:30.884Z,12.40
2018-07-02T01:49:36.746Z,12.37
2018-07-02T01:55:42.483Z,12.23
2018-07-02T02:01:48.184Z,12.20
2018-07-02T02:07:54.388Z,11.90
2018-07-02T02:14:00.044Z,11.86
2018-07-02T02:20:06.112Z,11.94
2018-07-02T02:26:11.869Z,11.84
2018-07-02T02:32:17.591Z,11.85
2018-07-02T02:38:24.399Z,11.75
2018-07-02T02:44:30.080Z,11.62
2018-07-02T02:50:35.885Z,11.28
2018-07-02T02:56:41.700Z,11.30
2018-07-02T03:02:47.492Z,11.00
2018-07-02T03:08:53.238Z,11.15
2018-07-02T03:14:59.026Z,11.14
2018-07-02T03:21:04.698Z,11.07
2018-07-02T03:27:11.493Z,11.20
2018-07-02T03:33:17.182Z,10.91
2018-07-02T03:39:23.881Z,10.97
2018-07-02T03:45:29.788Z,10.99
2018-07-02T03:51:35.430Z,11.07
2018-07-02T03:57:41.065Z,11.21
2018-07-02T04:03:46.731Z,11.28
2018-07-02T04:09:54.152Z,11.36
2018-07-02T04:16:00.573Z,11.45
2018-07-02T04:22:06.966Z,11.39
2018-07-02T04:28:12.877Z,11.75
2018-07-02T04:34:18.528Z,12.07
2018-07-02T04:40:25.767Z,12.09
2018-07-02T04:46:30.239Z,12.58
2018-07-02T04:52:35.880Z,12.76
2018-07-02T04:58:41.921Z,12.97
2018-07-02T05:04:48.007Z,13.19
2018-07-02T05:10:54.294Z,13.59
2018-07-02T05:17:00.266Z,13.88
2018-07-02T05:23:05.936Z,13.93
2018-07-02T05:29:11.581Z,14.28
2018-07-02T05:35:17.265Z,14.70
2018-07-02T05:41:23.690Z,15.01
2018-07-02T05:47:29.390Z,15.21
2018-07-02T05:53:35.284Z,15.65
2018-07-02T05:59:41.047Z,15.61
2018-07-02T06:05:46.756Z,16.07
2018-07-02T06:11:53.698Z,16.57
2018-07-02T06:17:59.601Z,16.82
2018-07-02T06:24:05.325Z,17.07
2018-07-02T06:30:11.150Z,17.37
2018-07-02T06:36:16.806Z,18.00
2018-07-02T06:42:23.246Z,18.37
2018-07-02T06:48:28.774Z,18.64
2018-07-02T06:54:34.502Z,19.30
2018-07-02T07:00:40.287Z,19.61
2018-07-02T07:06:46.022Z,19.95
2018-07-02T07:12:52.545Z,20.18
2018-07-02T07:18:58.400Z,20.46
2018-07-02T07:25:04.193Z,20.69
2018-07-02T07:31:09.940Z,20.70
2018-07-02T07:37:15.635Z,21.16
2018-07-02T07:43:22.790Z,21.64
2018-07-02T07:49:28.714Z,21.88
2018-07-02T07:55:34.386Z,21.83
2018-07-02T08:01:40.201Z,21.89
2018-07-02T08:07:45.923Z,22.39
2018-07-02T08:13:53.988Z,22.99
2018-07-02T08:19:59.936Z,22.93
2018-07-02T08:26:05.742Z,23.62
2018-07-02T08:32:11.399Z,23.24
2018-07-02T08:38:17.114Z,23.52
2018-07-02T08:44:23.760Z,23.60
2018-07-02T08:50:29.387Z,24.29
2018-07-02T08:56:35.144Z,24.97
2018-07-02T09:02:40.937Z,25.95
2018-07-02T09:08:46.955Z,25.62
2018-07-02T09:14:53.307Z,25.25
2018-07-02T09:20:59.259Z,25.45
2018-07-02T09:27:04.990Z,25.75
2018-07-02T09:33:10.666Z,26.71
2018-07-02T09:39:16.300Z,26.30
2018-07-02T09:45:21.991Z,27.13
2018-07-02T09:51:27.882Z,27.29
2018-07-02T09:57:33.526Z,27.00
2018-07-02T10:03:39.180Z,25.26
2018-07-02T10:09:45.011Z,24.09
2018-07-02T10:15:51.327Z,24.15
2018-07-02T10:21:57.040Z,25.41
2018-07-02T10:28:02.832Z,25.60
2018-07-02T10:34:08.580Z,26.49
2018-07-02T10:40:14.335Z,27.72
2018-07-02T10:46:20.310Z,28.03
2018-07-02T10:52:26.240Z,28.87
2018-07-02T10:58:31.917Z,29.41
2018-07-02T11:04:38.005Z,28.99
2018-07-02T11:10:43.633Z,29.44
2018-07-02T11:16:49.438Z,29.63
2018-07-02T11:22:56.087Z,29.05
2018-07-02T11:29:01.755Z,28.48
2018-07-02T11:35:07.613Z,30.01
2018-07-02T11:41:13.675Z,30.36
2018-07-02T11:47:19.442Z,30.23
2018-07-02T11:53:25.508Z,30.22
2018-07-02T11:59:31.169Z,30.73
2018-07-02T12:05:36.823Z,29.45
2018-07-02T12:11:42.599Z,30.20
2018-07-02T12:17:48.203Z,30.12
2018-07-02T12:23:54.224Z,30.45
2018-07-02T12:29:59.900Z,31.11
2018-07-02T12:36:05.909Z,28.91
2018-07-02T12:42:11.643Z,29.92
2018-07-02T12:48:17.329Z,29.79
2018-07-02T12:54:24.141Z,29.74
2018-07-02T13:00:30.025Z,29.60
2018-07-02T13:06:35.818Z,30.21
2018-07-02T13:12:41.589Z,30.61
2018-07-02T13:18:47.229Z,31.38
2018-07-02T13:24:53.536Z,30.69
2018-07-02T13:30:59.721Z,31.36
2018-07-02T13:37:05.628Z,31.14
2018-07-02T13:43:11.348Z,31.56
2018-07-02T13:49:17.342Z,31.55
2018-07-02T13:55:23.147Z,31.36
2018-07-02T14:01:28.807Z,33.01
2018-07-02T14:07:34.674Z,32.80
2018-07-02T14:13:40.364Z,33.48
2018-07-02T14:19:46.311Z,33.55
2018-07-02T14:25:52.284Z,33.96
2018-07-02T14:31:58.360Z,34.25
2018-07-02T14:38:04.172Z,34.10
2018-07-02T14:44:10.378Z,34.03
2018-07-02T14:50:16.421Z,33.20
2018-07-02T14:56:23.524Z,34.40
2018-07-02T15:02:29.206Z,34.20
2018-07-02T15:08:35.073Z,33.57
2018-07-02T15:14:40.752Z,33.03
2018-07-02T15:20:46.578Z,33.02
2018-07-02T15:26:52.470Z,32.47
2018-07-02T15:32:58.509Z,31.86
2018-07-02T15:39:04.835Z,31.74
2018-07-02T15:45:10.487Z,30.91
2018-07-02T15:51:16.281Z,30.65
2018-07-02T15:57:22.572Z,30.82
2018-07-02T16:03:28.260Z,30.26
2018-07-02T16:09:33.937Z,29.91
2018-07-02T16:15:40.228Z,29.47
2018-07-02T16:21:46.054Z,29.50
2018-07-02T16:27:52.983Z,29.98
2018-07-02T16:33:58.796Z,31.07
2018-07-02T16:40:04.914Z,32.08
2018-07-02T16:46:11.085Z,34.48
2018-07-02T16:52:16.489Z,36.06
2018-07-02T16:58:23.105Z,36.69
2018-07-02T17:04:29.077Z,37.05
2018-07-02T17:10:34.808Z,37.05
2018-07-02T17:16:41.301Z,37.64
2018-07-02T17:22:47.277Z,38.67
2018-07-02T17:28:54.006Z,37.61
2018-07-02T17:34:59.652Z,37.29
2018-07-02T17:41:05.821Z,37.03
2018-07-02T17:47:18.136Z,38.10
2018-07-02T17:53:24.476Z,37.53
2018-07-02T17:59:30.380Z,38.16
2018-07-02T18:05:36.315Z,38.52
2018-07-02T18:11:42.236Z,38.43
2018-07-02T18:17:48.312Z,37.91
2018-07-02T18:23:55.276Z,37.55
2018-07-02T18:30:01.402Z,37.09
2018-07-02T18:36:07.183Z,36.44
2018-07-02T18:42:12.799Z,36.11
2018-07-02T18:48:18.659Z,34.52
2018-07-02T18:54:24.880Z,31.45
2018-07-02T19:00:30.831Z,29.03
2018-07-02T19:06:36.530Z,27.04
2018-07-02T19:12:42.172Z,25.93
2018-07-02T19:18:47.927Z,25.05
2018-07-02T19:24:54.192Z,23.69
2018-07-02T19:30:59.935Z,22.79
2018-07-02T19:37:05.749Z,21.98
2018-07-02T19:43:11.413Z,21.40
2018-07-02T19:49:17.238Z,20.70
2018-07-02T19:55:28.384Z,20.06
2018-07-02T20:01:34.118Z,19.89
2018-07-02T20:07:39.849Z,19.48
2018-07-02T20:13:45.648Z,19.33
2018-07-02T20:19:52.429Z,18.99
2018-07-02T20:25:58.319Z,18.87
2018-07-02T20:32:04.227Z,18.80
2018-07-02T20:38:09.921Z,18.58
2018-07-02T20:44:15.613Z,18.55
2018-07-02T20:50:21.830Z,18.17
2018-07-02T20:56:27.831Z,18.07
2018-07-02T21:02:33.579Z,17.98
2018-07-02T21:08:39.448Z,17.59
2018-07-02T21:14:45.111Z,17.53
2018-07-02T21:20:50.922Z,17.28
2018-07-02T21:26:56.717Z,17.19
2018-07-02T21:33:02.338Z,17.14
2018-07-02T21:39:12.068Z,17.08
2018-07-02T21:45:17.869Z,16.89
2018-07-02T21:51:23.760Z,16.81
2018-07-02T21:57:29.544Z,16.61
2018-07-02T22:03:35.399Z,16.39
2018-07-02T22:09:41.132Z,16.41
2018-07-02T22:15:46.864Z,16.35
2018-07-02T22:21:53.010Z,16.09
2018-07-02T22:27:58.663Z,15.77
2018-07-02T22:34:04.502Z,15.66
2018-07-02T22:40:10.383Z,15.61
2018-07-02T22:46:16.154Z,15.34
2018-07-02T22:52:22.691Z,15.53
2018-07-02T22:58:28.911Z,15.18
2018-07-02T23:04:34.501Z,15.10
2018-07-02T23:10:40.067Z,15.06
2018-07-02T23:16:45.721Z,14.85
2018-07-02T23:23:01.497Z,14.91
2018-07-02T23:29:07.370Z,14.94
2018-07-02T23:35:13.094Z,14.68
2018-07-02T23:41:18.879Z,14.56
2018-07-02T23:47:25.107Z,14.33
2018-07-02T23:53:30.980Z,14.42
2018-07-02T23:59:36.813Z,14.29
